sensor_id;sensor_type;location;lat;lon;timestamp;P1;durP1;ratioP1;P2;durP2;ratioP2
77105;SDS011;66057;54.718;18.426;2023-11-21T00:02:02;7.25;;;3.85;;
77105;SDS011;66057;54.718;18.426;2023-11-21T00:04:28;6.30;;;2.70;;
77105;SDS011;66057;54.718;18.426;2023-11-21T00:06:53;5.40;;;3.33;;
77105;SDS011;66057;54.718;18.426;2023-11-21T00:09:19;4.25;;;2.70;;
77105;SDS011;66057;54.718;18.426;2023-11-21T00:11:45;7.65;;;2.75;;
77105;SDS011;66057;54.718;18.426;2023-11-21T00:14:11;2.95;;;2.10;;
77105;SDS011;66057;54.718;18.426;2023-11-21T00:16:37;7.32;;;2.85;;
77105;SDS011;66057;54.718;18.426;2023-11-21T00:19:03;5.07;;;2.58;;
77105;SDS011;66057;54.718;18.426;2023-11-21T00:21:28;4.55;;;2.60;;
77105;SDS011;66057;54.718;18.426;2023-11-21T00:23:54;4.88;;;2.10;;
77105;SDS011;66057;54.718;18.426;2023-11-21T00:26:19;3.17;;;1.55;;
77105;SDS011;66057;54.718;18.426;2023-11-21T00:28:45;3.47;;;2.20;;
77105;SDS011;66057;54.718;18.426;2023-11-21T00:31:11;2.35;;;1.98;;
77105;SDS011;66057;54.718;18.426;2023-11-21T00:33:36;4.55;;;2.95;;
77105;SDS011;66057;54.718;18.426;2023-11-21T00:36:02;4.40;;;2.50;;
77105;SDS011;66057;54.718;18.426;2023-11-21T00:38:28;2.60;;;1.70;;
77105;SDS011;66057;54.718;18.426;2023-11-21T00:40:53;4.65;;;2.75;;
77105;SDS011;66057;54.718;18.426;2023-11-21T00:43:22;3.25;;;2.30;;
77105;SDS011;66057;54.718;18.426;2023-11-21T00:45:47;4.32;;;2.50;;
77105;SDS011;66057;54.718;18.426;2023-11-21T00:48:14;3.78;;;2.30;;
77105;SDS011;66057;54.718;18.426;2023-11-21T00:50:40;7.18;;;2.55;;
77105;SDS011;66057;54.718;18.426;2023-11-21T00:53:06;4.20;;;2.05;;
77105;SDS011;66057;54.718;18.426;2023-11-21T00:55:32;5.85;;;1.80;;
77105;SDS011;66057;54.718;18.426;2023-11-21T00:57:58;3.00;;;2.05;;
77105;SDS011;66057;54.718;18.426;2023-11-21T01:00:25;3.70;;;2.50;;
77105;SDS011;66057;54.718;18.426;2023-11-21T01:02:50;4.47;;;2.55;;
77105;SDS011;66057;54.718;18.426;2023-11-21T01:05:16;2.55;;;1.48;;
77105;SDS011;66057;54.718;18.426;2023-11-21T01:07:43;5.22;;;2.20;;
77105;SDS011;66057;54.718;18.426;2023-11-21T01:10:09;2.88;;;2.05;;
77105;SDS011;66057;54.718;18.426;2023-11-21T01:12:35;2.70;;;1.75;;
77105;SDS011;66057;54.718;18.426;2023-11-21T01:15:02;4.88;;;2.42;;
77105;SDS011;66057;54.718;18.426;2023-11-21T01:17:28;4.53;;;2.60;;
77105;SDS011;66057;54.718;18.426;2023-11-21T01:19:54;3.65;;;2.58;;
77105;SDS011;66057;54.718;18.426;2023-11-21T01:22:19;4.57;;;2.13;;
77105;SDS011;66057;54.718;18.426;2023-11-21T01:24:51;4.78;;;2.10;;
77105;SDS011;66057;54.718;18.426;2023-11-21T01:27:16;4.78;;;2.13;;
77105;SDS011;66057;54.718;18.426;2023-11-21T01:29:44;11.15;;;2.05;;
77105;SDS011;66057;54.718;18.426;2023-11-21T01:32:10;4.95;;;2.40;;
77105;SDS011;66057;54.718;18.426;2023-11-21T01:34:36;4.18;;;1.98;;
77105;SDS011;66057;54.718;18.426;2023-11-21T01:37:01;4.85;;;2.13;;
77105;SDS011;66057;54.718;18.426;2023-11-21T01:39:29;3.15;;;2.53;;
77105;SDS011;66057;54.718;18.426;2023-11-21T01:41:55;3.78;;;1.73;;
77105;SDS011;66057;54.718;18.426;2023-11-21T01:44:23;5.90;;;2.45;;
77105;SDS011;66057;54.718;18.426;2023-11-21T01:46:50;3.63;;;2.38;;
77105;SDS011;66057;54.718;18.426;2023-11-21T01:49:16;2.70;;;1.85;;
77105;SDS011;66057;54.718;18.426;2023-11-21T01:51:43;4.25;;;2.13;;
77105;SDS011;66057;54.718;18.426;2023-11-21T01:54:12;7.47;;;2.30;;
77105;SDS011;66057;54.718;18.426;2023-11-21T01:56:39;8.80;;;2.65;;
77105;SDS011;66057;54.718;18.426;2023-11-21T01:59:05;4.10;;;1.75;;
77105;SDS011;66057;54.718;18.426;2023-11-21T02:03:59;4.07;;;2.53;;
77105;SDS011;66057;54.718;18.426;2023-11-21T02:06:25;5.88;;;2.78;;
77105;SDS011;66057;54.718;18.426;2023-11-21T02:08:51;3.08;;;1.63;;
77105;SDS011;66057;54.718;18.426;2023-11-21T02:11:16;5.43;;;2.35;;
77105;SDS011;66057;54.718;18.426;2023-11-21T02:13:43;6.65;;;2.72;;
77105;SDS011;66057;54.718;18.426;2023-11-21T02:16:10;3.35;;;2.05;;
77105;SDS011;66057;54.718;18.426;2023-11-21T02:18:38;5.00;;;1.95;;
77105;SDS011;66057;54.718;18.426;2023-11-21T02:21:04;5.82;;;2.55;;
77105;SDS011;66057;54.718;18.426;2023-11-21T02:23:29;8.10;;;2.72;;
77105;SDS011;66057;54.718;18.426;2023-11-21T02:25:55;5.35;;;2.60;;
77105;SDS011;66057;54.718;18.426;2023-11-21T02:28:21;3.90;;;2.25;;
77105;SDS011;66057;54.718;18.426;2023-11-21T02:30:51;6.55;;;2.00;;
77105;SDS011;66057;54.718;18.426;2023-11-21T02:33:21;3.78;;;2.47;;
77105;SDS011;66057;54.718;18.426;2023-11-21T02:35:47;4.43;;;2.92;;
77105;SDS011;66057;54.718;18.426;2023-11-21T02:38:12;5.40;;;2.92;;
77105;SDS011;66057;54.718;18.426;2023-11-21T02:40:39;5.90;;;2.22;;
77105;SDS011;66057;54.718;18.426;2023-11-21T02:43:04;4.38;;;2.15;;
77105;SDS011;66057;54.718;18.426;2023-11-21T02:45:31;4.05;;;2.08;;
77105;SDS011;66057;54.718;18.426;2023-11-21T02:47:57;4.53;;;2.67;;
77105;SDS011;66057;54.718;18.426;2023-11-21T02:50:22;4.45;;;2.33;;
77105;SDS011;66057;54.718;18.426;2023-11-21T02:52:48;4.30;;;2.05;;
77105;SDS011;66057;54.718;18.426;2023-11-21T02:55:13;2.78;;;1.73;;
77105;SDS011;66057;54.718;18.426;2023-11-21T02:57:39;5.28;;;2.20;;
77105;SDS011;66057;54.718;18.426;2023-11-21T03:00:05;5.95;;;2.63;;
77105;SDS011;66057;54.718;18.426;2023-11-21T03:02:33;3.97;;;2.47;;
77105;SDS011;66057;54.718;18.426;2023-11-21T03:05:02;2.55;;;1.50;;
77105;SDS011;66057;54.718;18.426;2023-11-21T03:07:27;3.47;;;2.13;;
77105;SDS011;66057;54.718;18.426;2023-11-21T03:09:53;6.38;;;2.03;;
77105;SDS011;66057;54.718;18.426;2023-11-21T03:12:18;2.92;;;2.10;;
77105;SDS011;66057;54.718;18.426;2023-11-21T03:14:45;5.65;;;2.80;;
77105;SDS011;66057;54.718;18.426;2023-11-21T03:17:10;3.05;;;1.60;;
77105;SDS011;66057;54.718;18.426;2023-11-21T03:19:37;4.65;;;1.77;;
77105;SDS011;66057;54.718;18.426;2023-11-21T03:22:02;5.07;;;2.80;;
77105;SDS011;66057;54.718;18.426;2023-11-21T03:26:55;3.45;;;2.25;;
77105;SDS011;66057;54.718;18.426;2023-11-21T03:29:21;2.92;;;1.42;;
77105;SDS011;66057;54.718;18.426;2023-11-21T03:31:47;2.42;;;1.38;;
77105;SDS011;66057;54.718;18.426;2023-11-21T03:34:19;2.63;;;1.35;;
77105;SDS011;66057;54.718;18.426;2023-11-21T03:36:45;1.95;;;1.42;;
77105;SDS011;66057;54.718;18.426;2023-11-21T03:39:12;4.47;;;2.25;;
77105;SDS011;66057;54.718;18.426;2023-11-21T03:41:39;2.47;;;1.75;;
77105;SDS011;66057;54.718;18.426;2023-11-21T03:44:05;1.42;;;1.10;;
77105;SDS011;66057;54.718;18.426;2023-11-21T03:46:30;2.13;;;1.48;;
77105;SDS011;66057;54.718;18.426;2023-11-21T03:48:56;1.98;;;1.33;;
77105;SDS011;66057;54.718;18.426;2023-11-21T03:51:21;4.10;;;1.70;;
77105;SDS011;66057;54.718;18.426;2023-11-21T03:53:47;3.70;;;1.38;;
77105;SDS011;66057;54.718;18.426;2023-11-21T03:56:13;2.72;;;1.55;;
77105;SDS011;66057;54.718;18.426;2023-11-21T03:58:39;3.10;;;1.20;;
77105;SDS011;66057;54.718;18.426;2023-11-21T04:01:05;2.58;;;1.98;;
77105;SDS011;66057;54.718;18.426;2023-11-21T04:03:30;2.97;;;1.60;;
77105;SDS011;66057;54.718;18.426;2023-11-21T04:05:56;2.92;;;1.63;;
77105;SDS011;66057;54.718;18.426;2023-11-21T04:08:22;2.90;;;2.13;;
77105;SDS011;66057;54.718;18.426;2023-11-21T04:10:47;3.13;;;1.73;;
77105;SDS011;66057;54.718;18.426;2023-11-21T04:13:14;4.25;;;1.67;;
77105;SDS011;66057;54.718;18.426;2023-11-21T04:15:39;2.65;;;1.58;;
77105;SDS011;66057;54.718;18.426;2023-11-21T04:18:05;3.78;;;2.03;;
77105;SDS011;66057;54.718;18.426;2023-11-21T04:20:30;3.30;;;2.10;;
77105;SDS011;66057;54.718;18.426;2023-11-21T04:22:56;2.65;;;2.08;;
77105;SDS011;66057;54.718;18.426;2023-11-21T04:25:21;1.48;;;1.13;;
77105;SDS011;66057;54.718;18.426;2023-11-21T04:27:48;3.10;;;1.55;;
77105;SDS011;66057;54.718;18.426;2023-11-21T04:30:14;3.15;;;1.70;;
77105;SDS011;66057;54.718;18.426;2023-11-21T04:32:40;5.80;;;1.65;;
77105;SDS011;66057;54.718;18.426;2023-11-21T04:35:05;3.88;;;1.45;;
77105;SDS011;66057;54.718;18.426;2023-11-21T04:37:31;3.90;;;2.13;;
77105;SDS011;66057;54.718;18.426;2023-11-21T04:39:56;1.85;;;0.80;;
77105;SDS011;66057;54.718;18.426;2023-11-21T04:42:22;1.85;;;1.42;;
77105;SDS011;66057;54.718;18.426;2023-11-21T04:44:48;2.33;;;1.75;;
77105;SDS011;66057;54.718;18.426;2023-11-21T04:47:14;4.63;;;2.10;;
77105;SDS011;66057;54.718;18.426;2023-11-21T04:49:41;1.50;;;0.90;;
77105;SDS011;66057;54.718;18.426;2023-11-21T04:52:07;4.05;;;1.35;;
77105;SDS011;66057;54.718;18.426;2023-11-21T04:54:35;1.00;;;0.90;;
77105;SDS011;66057;54.718;18.426;2023-11-21T04:57:01;3.20;;;1.45;;
77105;SDS011;66057;54.718;18.426;2023-11-21T04:59:26;2.75;;;1.00;;
77105;SDS011;66057;54.718;18.426;2023-11-21T05:01:52;2.00;;;1.27;;
77105;SDS011;66057;54.718;18.426;2023-11-21T05:04:19;3.20;;;2.20;;
77105;SDS011;66057;54.718;18.426;2023-11-21T05:06:44;2.60;;;1.45;;
77105;SDS011;66057;54.718;18.426;2023-11-21T05:09:10;5.15;;;1.42;;
77105;SDS011;66057;54.718;18.426;2023-11-21T05:11:37;3.38;;;1.33;;
77105;SDS011;66057;54.718;18.426;2023-11-21T05:14:03;1.90;;;1.35;;
77105;SDS011;66057;54.718;18.426;2023-11-21T05:16:30;4.18;;;1.02;;
77105;SDS011;66057;54.718;18.426;2023-11-21T05:18:56;3.30;;;1.73;;
77105;SDS011;66057;54.718;18.426;2023-11-21T05:21:26;3.88;;;1.13;;
77105;SDS011;66057;54.718;18.426;2023-11-21T05:23:51;0.65;;;0.45;;
77105;SDS011;66057;54.718;18.426;2023-11-21T05:26:17;0.70;;;0.60;;
77105;SDS011;66057;54.718;18.426;2023-11-21T05:28:42;0.65;;;0.60;;
77105;SDS011;66057;54.718;18.426;2023-11-21T05:31:08;0.55;;;0.40;;
77105;SDS011;66057;54.718;18.426;2023-11-21T05:33:33;1.67;;;1.00;;
77105;SDS011;66057;54.718;18.426;2023-11-21T05:35:59;7.18;;;1.17;;
77105;SDS011;66057;54.718;18.426;2023-11-21T05:38:25;2.33;;;1.30;;
77105;SDS011;66057;54.718;18.426;2023-11-21T05:40:51;1.13;;;1.02;;
77105;SDS011;66057;54.718;18.426;2023-11-21T05:43:16;1.90;;;0.80;;
77105;SDS011;66057;54.718;18.426;2023-11-21T05:45:43;0.70;;;0.63;;
77105;SDS011;66057;54.718;18.426;2023-11-21T05:48:08;1.55;;;1.17;;
77105;SDS011;66057;54.718;18.426;2023-11-21T05:50:34;0.73;;;0.73;;
77105;SDS011;66057;54.718;18.426;2023-11-21T05:53:01;2.97;;;0.80;;
77105;SDS011;66057;54.718;18.426;2023-11-21T05:55:27;1.75;;;1.00;;
77105;SDS011;66057;54.718;18.426;2023-11-21T05:57:52;1.50;;;0.82;;
77105;SDS011;66057;54.718;18.426;2023-11-21T06:00:19;0.77;;;0.68;;
77105;SDS011;66057;54.718;18.426;2023-11-21T06:02:54;1.35;;;1.02;;
77105;SDS011;66057;54.718;18.426;2023-11-21T06:05:21;1.08;;;0.55;;
77105;SDS011;66057;54.718;18.426;2023-11-21T06:07:48;0.90;;;0.32;;
77105;SDS011;66057;54.718;18.426;2023-11-21T06:10:14;0.75;;;0.75;;
77105;SDS011;66057;54.718;18.426;2023-11-21T06:12:40;1.17;;;1.08;;
77105;SDS011;66057;54.718;18.426;2023-11-21T06:15:08;1.17;;;1.08;;
77105;SDS011;66057;54.718;18.426;2023-11-21T06:17:37;1.40;;;0.80;;
77105;SDS011;66057;54.718;18.426;2023-11-21T06:20:03;1.58;;;0.55;;
77105;SDS011;66057;54.718;18.426;2023-11-21T06:22:37;1.75;;;0.90;;
77105;SDS011;66057;54.718;18.426;2023-11-21T06:25:03;0.70;;;0.68;;
77105;SDS011;66057;54.718;18.426;2023-11-21T06:27:34;1.05;;;1.02;;
77105;SDS011;66057;54.718;18.426;2023-11-21T06:30:03;1.23;;;0.70;;
77105;SDS011;66057;54.718;18.426;2023-11-21T06:32:35;1.40;;;0.98;;
77105;SDS011;66057;54.718;18.426;2023-11-21T06:35:02;1.00;;;0.77;;
77105;SDS011;66057;54.718;18.426;2023-11-21T06:37:28;0.40;;;0.32;;
77105;SDS011;66057;54.718;18.426;2023-11-21T06:39:54;1.40;;;1.30;;
77105;SDS011;66057;54.718;18.426;2023-11-21T06:42:19;0.88;;;0.88;;
77105;SDS011;66057;54.718;18.426;2023-11-21T06:44:45;1.67;;;0.90;;
77105;SDS011;66057;54.718;18.426;2023-11-21T06:47:11;1.60;;;1.35;;
77105;SDS011;66057;54.718;18.426;2023-11-21T06:49:37;1.52;;;1.35;;
77105;SDS011;66057;54.718;18.426;2023-11-21T06:52:04;0.98;;;0.75;;
77105;SDS011;66057;54.718;18.426;2023-11-21T06:54:33;2.00;;;0.65;;
77105;SDS011;66057;54.718;18.426;2023-11-21T06:57:00;1.67;;;1.13;;
77105;SDS011;66057;54.718;18.426;2023-11-21T06:59:32;1.48;;;1.05;;
77105;SDS011;66057;54.718;18.426;2023-11-21T07:01:59;4.65;;;0.95;;
77105;SDS011;66057;54.718;18.426;2023-11-21T07:04:27;0.95;;;0.70;;
77105;SDS011;66057;54.718;18.426;2023-11-21T07:06:54;1.83;;;1.17;;
77105;SDS011;66057;54.718;18.426;2023-11-21T07:11:50;4.55;;;0.90;;
77105;SDS011;66057;54.718;18.426;2023-11-21T07:14:15;0.73;;;0.50;;
77105;SDS011;66057;54.718;18.426;2023-11-21T07:16:42;1.00;;;0.88;;
77105;SDS011;66057;54.718;18.426;2023-11-21T07:19:08;0.45;;;0.45;;
77105;SDS011;66057;54.718;18.426;2023-11-21T07:21:33;0.85;;;0.63;;
77105;SDS011;66057;54.718;18.426;2023-11-21T07:24:03;1.80;;;0.80;;
77105;SDS011;66057;54.718;18.426;2023-11-21T07:26:28;2.05;;;1.05;;
77105;SDS011;66057;54.718;18.426;2023-11-21T07:28:54;0.95;;;0.77;;
77105;SDS011;66057;54.718;18.426;2023-11-21T07:31:20;1.27;;;0.77;;
77105;SDS011;66057;54.718;18.426;2023-11-21T07:33:46;0.43;;;0.32;;
77105;SDS011;66057;54.718;18.426;2023-11-21T07:36:12;5.93;;;0.40;;
77105;SDS011;66057;54.718;18.426;2023-11-21T07:38:38;2.35;;;0.70;;
77105;SDS011;66057;54.718;18.426;2023-11-21T07:41:04;0.70;;;0.70;;
77105;SDS011;66057;54.718;18.426;2023-11-21T07:43:30;2.50;;;0.75;;
77105;SDS011;66057;54.718;18.426;2023-11-21T07:46:00;0.30;;;0.30;;
77105;SDS011;66057;54.718;18.426;2023-11-21T07:48:26;1.08;;;0.60;;
77105;SDS011;66057;54.718;18.426;2023-11-21T07:50:51;0.82;;;0.52;;
77105;SDS011;66057;54.718;18.426;2023-11-21T07:53:17;1.92;;;0.52;;
77105;SDS011;66057;54.718;18.426;2023-11-21T07:55:42;1.20;;;0.90;;
77105;SDS011;66057;54.718;18.426;2023-11-21T07:58:11;0.75;;;0.75;;
77105;SDS011;66057;54.718;18.426;2023-11-21T08:00:38;0.40;;;0.40;;
77105;SDS011;66057;54.718;18.426;2023-11-21T08:03:05;0.70;;;0.50;;
77105;SDS011;66057;54.718;18.426;2023-11-21T08:05:31;1.40;;;1.23;;
77105;SDS011;66057;54.718;18.426;2023-11-21T08:07:57;0.93;;;0.65;;
77105;SDS011;66057;54.718;18.426;2023-11-21T08:10:22;3.10;;;0.73;;
77105;SDS011;66057;54.718;18.426;2023-11-21T08:12:48;0.85;;;0.43;;
77105;SDS011;66057;54.718;18.426;2023-11-21T08:15:15;1.00;;;0.70;;
77105;SDS011;66057;54.718;18.426;2023-11-21T08:17:41;1.25;;;0.75;;
77105;SDS011;66057;54.718;18.426;2023-11-21T08:20:06;1.30;;;1.10;;
77105;SDS011;66057;54.718;18.426;2023-11-21T08:22:37;1.00;;;0.60;;
77105;SDS011;66057;54.718;18.426;2023-11-21T08:25:02;2.03;;;0.80;;
77105;SDS011;66057;54.718;18.426;2023-11-21T08:27:30;0.70;;;0.57;;
77105;SDS011;66057;54.718;18.426;2023-11-21T08:29:56;0.60;;;0.60;;
77105;SDS011;66057;54.718;18.426;2023-11-21T08:32:24;0.93;;;0.68;;
77105;SDS011;66057;54.718;18.426;2023-11-21T08:34:49;1.35;;;0.75;;
77105;SDS011;66057;54.718;18.426;2023-11-21T08:37:16;0.63;;;0.60;;
77105;SDS011;66057;54.718;18.426;2023-11-21T08:39:43;1.15;;;0.88;;
77105;SDS011;66057;54.718;18.426;2023-11-21T08:42:09;4.28;;;1.20;;
77105;SDS011;66057;54.718;18.426;2023-11-21T08:44:35;1.15;;;0.57;;
77105;SDS011;66057;54.718;18.426;2023-11-21T08:47:00;1.50;;;1.23;;
77105;SDS011;66057;54.718;18.426;2023-11-21T08:49:26;1.60;;;1.05;;
77105;SDS011;66057;54.718;18.426;2023-11-21T08:51:53;1.40;;;1.00;;
77105;SDS011;66057;54.718;18.426;2023-11-21T08:54:20;2.05;;;1.27;;
77105;SDS011;66057;54.718;18.426;2023-11-21T08:56:46;1.42;;;0.80;;
77105;SDS011;66057;54.718;18.426;2023-11-21T08:59:12;2.10;;;1.33;;
77105;SDS011;66057;54.718;18.426;2023-11-21T09:01:40;1.25;;;1.10;;
77105;SDS011;66057;54.718;18.426;2023-11-21T09:04:06;1.88;;;0.25;;
77105;SDS011;66057;54.718;18.426;2023-11-21T09:06:32;1.65;;;1.45;;
77105;SDS011;66057;54.718;18.426;2023-11-21T09:08:57;1.02;;;0.80;;
77105;SDS011;66057;54.718;18.426;2023-11-21T09:11:23;5.32;;;1.05;;
77105;SDS011;66057;54.718;18.426;2023-11-21T09:13:51;1.58;;;0.70;;
77105;SDS011;66057;54.718;18.426;2023-11-21T09:16:17;1.77;;;1.33;;
77105;SDS011;66057;54.718;18.426;2023-11-21T09:18:42;0.80;;;0.77;;
77105;SDS011;66057;54.718;18.426;2023-11-21T09:21:08;1.73;;;0.85;;
77105;SDS011;66057;54.718;18.426;2023-11-21T09:23:34;4.10;;;1.20;;
77105;SDS011;66057;54.718;18.426;2023-11-21T09:26:00;1.17;;;0.98;;
77105;SDS011;66057;54.718;18.426;2023-11-21T09:28:26;2.30;;;1.00;;
77105;SDS011;66057;54.718;18.426;2023-11-21T09:30:53;1.77;;;0.85;;
77105;SDS011;66057;54.718;18.426;2023-11-21T09:33:18;1.00;;;0.70;;
77105;SDS011;66057;54.718;18.426;2023-11-21T09:35:44;1.73;;;0.70;;
77105;SDS011;66057;54.718;18.426;2023-11-21T09:38:09;1.85;;;0.47;;
77105;SDS011;66057;54.718;18.426;2023-11-21T09:40:36;3.20;;;1.50;;
77105;SDS011;66057;54.718;18.426;2023-11-21T09:43:05;1.45;;;1.08;;
77105;SDS011;66057;54.718;18.426;2023-11-21T09:45:35;5.97;;;1.33;;
77105;SDS011;66057;54.718;18.426;2023-11-21T09:48:00;1.35;;;0.90;;
77105;SDS011;66057;54.718;18.426;2023-11-21T09:50:26;3.03;;;1.75;;
77105;SDS011;66057;54.718;18.426;2023-11-21T09:55:18;2.95;;;1.73;;
77105;SDS011;66057;54.718;18.426;2023-11-21T09:57:45;3.17;;;1.48;;
77105;SDS011;66057;54.718;18.426;2023-11-21T10:00:11;4.53;;;1.50;;
77105;SDS011;66057;54.718;18.426;2023-11-21T10:02:37;2.67;;;1.05;;
77105;SDS011;66057;54.718;18.426;2023-11-21T10:05:04;0.35;;;0.32;;
77105;SDS011;66057;54.718;18.426;2023-11-21T10:07:30;2.25;;;1.30;;
77105;SDS011;66057;54.718;18.426;2023-11-21T10:09:57;1.65;;;0.85;;
77105;SDS011;66057;54.718;18.426;2023-11-21T10:12:23;5.10;;;1.45;;
77105;SDS011;66057;54.718;18.426;2023-11-21T10:14:51;1.30;;;0.82;;
77105;SDS011;66057;54.718;18.426;2023-11-21T10:17:18;1.05;;;0.88;;
77105;SDS011;66057;54.718;18.426;2023-11-21T10:19:46;3.28;;;1.10;;
77105;SDS011;66057;54.718;18.426;2023-11-21T10:22:13;2.67;;;1.50;;
77105;SDS011;66057;54.718;18.426;2023-11-21T10:24:40;2.78;;;1.70;;
77105;SDS011;66057;54.718;18.426;2023-11-21T10:27:05;5.32;;;2.00;;
77105;SDS011;66057;54.718;18.426;2023-11-21T10:29:31;1.75;;;1.10;;
77105;SDS011;66057;54.718;18.426;2023-11-21T10:32:01;3.15;;;1.40;;
77105;SDS011;66057;54.718;18.426;2023-11-21T10:34:27;1.70;;;0.88;;
77105;SDS011;66057;54.718;18.426;2023-11-21T10:36:53;3.42;;;1.42;;
77105;SDS011;66057;54.718;18.426;2023-11-21T10:39:19;4.07;;;1.98;;
77105;SDS011;66057;54.718;18.426;2023-11-21T10:41:45;2.72;;;1.50;;
77105;SDS011;66057;54.718;18.426;2023-11-21T10:44:17;1.83;;;1.50;;
77105;SDS011;66057;54.718;18.426;2023-11-21T10:46:49;3.33;;;1.77;;
77105;SDS011;66057;54.718;18.426;2023-11-21T10:49:18;2.63;;;1.48;;
77105;SDS011;66057;54.718;18.426;2023-11-21T10:51:44;6.65;;;1.38;;
77105;SDS011;66057;54.718;18.426;2023-11-21T10:54:09;2.47;;;1.17;;
77105;SDS011;66057;54.718;18.426;2023-11-21T10:56:35;1.40;;;1.10;;
77105;SDS011;66057;54.718;18.426;2023-11-21T10:59:09;2.42;;;2.22;;
77105;SDS011;66057;54.718;18.426;2023-11-21T11:01:36;1.63;;;0.93;;
77105;SDS011;66057;54.718;18.426;2023-11-21T11:04:02;2.05;;;1.15;;
77105;SDS011;66057;54.718;18.426;2023-11-21T11:06:31;2.10;;;1.20;;
77105;SDS011;66057;54.718;18.426;2023-11-21T11:08:58;0.82;;;0.43;;
77105;SDS011;66057;54.718;18.426;2023-11-21T11:11:24;0.98;;;0.82;;
77105;SDS011;66057;54.718;18.426;2023-11-21T11:13:50;1.30;;;0.60;;
77105;SDS011;66057;54.718;18.426;2023-11-21T11:16:17;1.45;;;0.77;;
77105;SDS011;66057;54.718;18.426;2023-11-21T11:18:43;2.90;;;1.60;;
77105;SDS011;66057;54.718;18.426;2023-11-21T11:21:20;2.88;;;1.60;;
77105;SDS011;66057;54.718;18.426;2023-11-21T11:23:54;2.67;;;1.55;;
77105;SDS011;66057;54.718;18.426;2023-11-21T11:29:23;1.90;;;1.08;;
77105;SDS011;66057;54.718;18.426;2023-11-21T11:31:55;2.15;;;0.93;;
77105;SDS011;66057;54.718;18.426;2023-11-21T11:37:09;0.63;;;0.60;;
77105;SDS011;66057;54.718;18.426;2023-11-21T11:39:40;2.05;;;0.80;;
77105;SDS011;66057;54.718;18.426;2023-11-21T11:42:15;4.53;;;1.42;;
77105;SDS011;66057;54.718;18.426;2023-11-21T11:47:20;2.03;;;1.10;;
77105;SDS011;66057;54.718;18.426;2023-11-21T11:55:02;1.13;;;0.73;;
77105;SDS011;66057;54.718;18.426;2023-11-21T11:57:31;2.03;;;1.10;;
77105;SDS011;66057;54.718;18.426;2023-11-21T12:02:46;2.53;;;1.52;;
77105;SDS011;66057;54.718;18.426;2023-11-21T12:05:13;2.67;;;1.65;;
77105;SDS011;66057;54.718;18.426;2023-11-21T12:07:43;1.95;;;0.82;;
77105;SDS011;66057;54.718;18.426;2023-11-21T12:10:11;0.60;;;0.60;;
77105;SDS011;66057;54.718;18.426;2023-11-21T12:12:36;1.50;;;0.65;;
77105;SDS011;66057;54.718;18.426;2023-11-21T12:15:04;1.58;;;1.20;;
77105;SDS011;66057;54.718;18.426;2023-11-21T12:17:30;2.70;;;1.17;;
77105;SDS011;66057;54.718;18.426;2023-11-21T12:20:01;1.35;;;0.95;;
77105;SDS011;66057;54.718;18.426;2023-11-21T12:22:28;1.13;;;0.40;;
77105;SDS011;66057;54.718;18.426;2023-11-21T12:24:54;1.27;;;0.65;;
77105;SDS011;66057;54.718;18.426;2023-11-21T12:27:20;0.52;;;0.47;;
77105;SDS011;66057;54.718;18.426;2023-11-21T12:29:46;1.35;;;0.75;;
77105;SDS011;66057;54.718;18.426;2023-11-21T12:32:11;1.90;;;1.10;;
77105;SDS011;66057;54.718;18.426;2023-11-21T12:34:38;0.85;;;0.68;;
77105;SDS011;66057;54.718;18.426;2023-11-21T12:37:04;0.73;;;0.57;;
77105;SDS011;66057;54.718;18.426;2023-11-21T12:39:30;0.80;;;0.60;;
77105;SDS011;66057;54.718;18.426;2023-11-21T12:41:55;1.30;;;0.20;;
77105;SDS011;66057;54.718;18.426;2023-11-21T12:44:22;0.65;;;0.47;;
77105;SDS011;66057;54.718;18.426;2023-11-21T12:46:49;0.52;;;0.43;;
77105;SDS011;66057;54.718;18.426;2023-11-21T12:49:15;0.88;;;0.50;;
77105;SDS011;66057;54.718;18.426;2023-11-21T12:51:45;0.73;;;0.60;;
77105;SDS011;66057;54.718;18.426;2023-11-21T12:54:11;0.80;;;0.30;;
77105;SDS011;66057;54.718;18.426;2023-11-21T12:56:38;1.73;;;0.63;;
77105;SDS011;66057;54.718;18.426;2023-11-21T12:59:04;0.65;;;0.22;;
77105;SDS011;66057;54.718;18.426;2023-11-21T13:01:30;2.45;;;0.52;;
77105;SDS011;66057;54.718;18.426;2023-11-21T13:03:57;3.40;;;1.05;;
77105;SDS011;66057;54.718;18.426;2023-11-21T13:06:27;1.50;;;0.50;;
77105;SDS011;66057;54.718;18.426;2023-11-21T13:08:54;0.40;;;0.40;;
77105;SDS011;66057;54.718;18.426;2023-11-21T13:11:20;2.58;;;0.63;;
77105;SDS011;66057;54.718;18.426;2023-11-21T13:13:45;1.02;;;0.47;;
77105;SDS011;66057;54.718;18.426;2023-11-21T13:16:11;1.27;;;0.88;;
77105;SDS011;66057;54.718;18.426;2023-11-21T13:18:37;1.58;;;0.60;;
77105;SDS011;66057;54.718;18.426;2023-11-21T13:21:05;0.60;;;0.45;;
77105;SDS011;66057;54.718;18.426;2023-11-21T13:23:43;0.82;;;0.50;;
77105;SDS011;66057;54.718;18.426;2023-11-21T13:26:11;0.63;;;0.60;;
77105;SDS011;66057;54.718;18.426;2023-11-21T13:28:37;0.30;;;0.30;;
77105;SDS011;66057;54.718;18.426;2023-11-21T13:31:03;0.40;;;0.40;;
77105;SDS011;66057;54.718;18.426;2023-11-21T13:33:38;0.80;;;0.47;;
77105;SDS011;66057;54.718;18.426;2023-11-21T13:36:06;1.02;;;0.30;;
77105;SDS011;66057;54.718;18.426;2023-11-21T13:38:35;0.50;;;0.40;;
77105;SDS011;66057;54.718;18.426;2023-11-21T13:41:02;0.32;;;0.30;;
77105;SDS011;66057;54.718;18.426;2023-11-21T13:43:28;1.08;;;0.75;;
77105;SDS011;66057;54.718;18.426;2023-11-21T13:45:54;1.90;;;0.60;;
77105;SDS011;66057;54.718;18.426;2023-11-21T13:48:26;1.65;;;1.08;;
77105;SDS011;66057;54.718;18.426;2023-11-21T13:51:06;0.75;;;0.40;;
77105;SDS011;66057;54.718;18.426;2023-11-21T13:53:44;0.52;;;0.45;;
77105;SDS011;66057;54.718;18.426;2023-11-21T14:01:22;1.25;;;0.40;;
77105;SDS011;66057;54.718;18.426;2023-11-21T14:04:01;1.55;;;0.82;;
77105;SDS011;66057;54.718;18.426;2023-11-21T14:06:37;2.47;;;0.68;;
77105;SDS011;66057;54.718;18.426;2023-11-21T14:09:14;2.95;;;0.80;;
77105;SDS011;66057;54.718;18.426;2023-11-21T14:11:48;2.83;;;0.95;;
77105;SDS011;66057;54.718;18.426;2023-11-21T14:16:39;1.15;;;1.05;;
77105;SDS011;66057;54.718;18.426;2023-11-21T14:19:12;0.75;;;0.65;;
77105;SDS011;66057;54.718;18.426;2023-11-21T14:21:41;2.38;;;1.05;;
77105;SDS011;66057;54.718;18.426;2023-11-21T14:24:11;0.93;;;0.70;;
77105;SDS011;66057;54.718;18.426;2023-11-21T14:26:39;3.50;;;0.73;;
77105;SDS011;66057;54.718;18.426;2023-11-21T14:29:05;1.90;;;1.02;;
77105;SDS011;66057;54.718;18.426;2023-11-21T14:31:31;1.25;;;0.70;;
77105;SDS011;66057;54.718;18.426;2023-11-21T14:33:57;3.00;;;1.23;;
77105;SDS011;66057;54.718;18.426;2023-11-21T14:36:22;1.73;;;1.02;;
77105;SDS011;66057;54.718;18.426;2023-11-21T14:38:49;4.22;;;1.30;;
77105;SDS011;66057;54.718;18.426;2023-11-21T14:41:14;1.35;;;0.88;;
77105;SDS011;66057;54.718;18.426;2023-11-21T14:43:40;2.40;;;0.52;;
77105;SDS011;66057;54.718;18.426;2023-11-21T14:46:06;2.00;;;1.10;;
77105;SDS011;66057;54.718;18.426;2023-11-21T14:48:35;3.40;;;2.13;;
77105;SDS011;66057;54.718;18.426;2023-11-21T14:51:08;2.08;;;0.77;;
77105;SDS011;66057;54.718;18.426;2023-11-21T14:53:53;3.75;;;1.90;;
77105;SDS011;66057;54.718;18.426;2023-11-21T14:56:22;1.63;;;1.27;;
77105;SDS011;66057;54.718;18.426;2023-11-21T14:58:53;2.13;;;1.52;;
77105;SDS011;66057;54.718;18.426;2023-11-21T15:01:20;1.55;;;0.85;;
77105;SDS011;66057;54.718;18.426;2023-11-21T15:03:59;4.00;;;1.23;;
77105;SDS011;66057;54.718;18.426;2023-11-21T15:06:24;1.35;;;1.20;;